createdAt,value
2022-10-17T00:03:04.699Z,87.75
2022-10-17T00:07:06.171Z,87.66
2022-10-17T00:11:15.201Z,87.84
2022-10-17T00:15:22.231Z,87.77
2022-10-17T00:19:23.798Z,87.90
2022-10-17T00:23:27.490Z,88.12
2022-10-17T00:27:29.742Z,88.44
2022-10-17T00:31:31.545Z,88.36
2022-10-17T00:35:33.335Z,87.91
2022-10-17T00:39:34.887Z,88.53
2022-10-17T00:43:55.601Z,88.35
2022-10-17T00:48:05.463Z,88.48
2022-10-17T00:52:29.001Z,89.25
2022-10-17T00:56:31.706Z,88.40
2022-10-17T01:00:33.905Z,88.39
2022-10-17T01:04:40.981Z,88.07
2022-10-17T01:08:42.733Z,89.67
2022-10-17T01:12:57.391Z,89.72
2022-10-17T01:17:27.922Z,89.92
2022-10-17T01:21:46.398Z,89.23
2022-10-17T01:26:13.947Z,89.34
2022-10-17T01:30:40.517Z,90.38
2022-10-17T01:34:59.397Z,90.26
2022-10-17T01:39:11.222Z,90.42
2022-10-17T01:43:22.736Z,90.88
2022-10-17T01:47:33.623Z,90.58
2022-10-17T01:52:06.329Z,90.80
2022-10-17T01:56:11.240Z,91.04
2022-10-17T02:00:20.907Z,91.09
2022-10-17T02:04:26.427Z,90.74
2022-10-17T02:08:39.828Z,91.03
2022-10-17T02:12:56.525Z,91.36
2022-10-17T02:17:17.825Z,91.06
2022-10-17T02:21:45.536Z,91.10
2022-10-17T02:25:52.786Z,90.76
2022-10-17T02:30:03.105Z,90.78
2022-10-17T02:34:17.856Z,91.13
2022-10-17T02:38:24.256Z,90.89
2022-10-17T02:42:28.840Z,90.71
2022-10-17T02:46:33.693Z,90.72
2022-10-17T02:51:03.976Z,90.58
2022-10-17T02:55:19.457Z,90.20
2022-10-17T02:59:25.002Z,90.42
2022-10-17T03:03:29.863Z,90.33
2022-10-17T03:07:35.376Z,90.57
2022-10-17T03:11:37.009Z,90.62
2022-10-17T03:15:39.065Z,90.73
2022-10-17T03:19:40.593Z,90.19
2022-10-17T03:23:43.802Z,90.32
2022-10-17T03:27:45.808Z,90.21
2022-10-17T03:31:47.467Z,90.31
2022-10-17T03:39:52.797Z,90.61
2022-10-17T03:43:54.523Z,90.64
2022-10-17T03:47:59.128Z,90.42
2022-10-17T03:52:01.167Z,90.43
2022-10-17T03:56:18.362Z,90.59
2022-10-17T04:00:26.558Z,90.39
2022-10-17T04:04:32.043Z,90.04
2022-10-17T04:08:34.715Z,89.93
2022-10-17T04:12:43.276Z,90.12
2022-10-17T04:16:45.222Z,90.25
2022-10-17T04:20:51.662Z,90.15
2022-10-17T04:24:54.111Z,90.02
2022-10-17T04:29:15.955Z,89.85
2022-10-17T04:33:19.795Z,89.88
2022-10-17T04:37:21.476Z,89.37
2022-10-17T04:41:25.752Z,89.21
2022-10-17T04:45:27.521Z,88.75
2022-10-17T04:49:33.156Z,88.62
2022-10-17T04:53:44.238Z,89.00
2022-10-17T04:57:46.215Z,88.74
2022-10-17T05:01:54.161Z,88.41
2022-10-17T05:05:55.931Z,88.84
2022-10-17T05:09:58.807Z,88.68
2022-10-17T05:14:02.510Z,88.25
2022-10-17T05:18:09.811Z,88.47
2022-10-17T05:22:12.074Z,88.78
2022-10-17T05:26:14.910Z,88.59
2022-10-17T05:30:16.513Z,88.61
2022-10-17T05:34:18.808Z,88.00
2022-10-17T05:38:20.609Z,88.12
2022-10-17T05:42:25.192Z,87.93
2022-10-17T05:46:26.842Z,87.11
2022-10-17T05:50:28.656Z,86.44
2022-10-17T05:54:46.269Z,85.97
2022-10-17T05:58:50.829Z,85.52
2022-10-17T06:03:25.706Z,83.77
2022-10-17T06:07:28.658Z,83.36
2022-10-17T06:11:33.701Z,82.42
2022-10-17T06:15:35.522Z,82.09
2022-10-17T06:19:41.546Z,81.39
2022-10-17T06:23:43.233Z,80.75
2022-10-17T06:27:56.368Z,79.58
2022-10-17T06:31:57.930Z,79.79
2022-10-17T06:36:00.596Z,78.59
2022-10-17T06:40:07.826Z,78.14
2022-10-17T06:44:11.235Z,77.54
2022-10-17T06:48:23.760Z,76.52
2022-10-17T06:52:43.537Z,76.52
2022-10-17T06:57:05.087Z,75.30
2022-10-17T07:01:18.613Z,73.30
2022-10-17T07:05:21.925Z,72.39
2022-10-17T07:09:24.948Z,72.15
2022-10-17T07:13:26.594Z,70.34
2022-10-17T07:17:28.417Z,69.86
2022-10-17T07:21:32.128Z,68.46
2022-10-17T07:25:39.403Z,67.99
2022-10-17T07:29:45.255Z,66.73
2022-10-17T07:33:53.648Z,65.42
2022-10-17T07:37:55.814Z,64.59
2022-10-17T07:41:58.775Z,63.79
2022-10-17T07:46:01.992Z,62.13
2022-10-17T07:50:05.696Z,60.26
2022-10-17T07:54:07.449Z,59.43
2022-10-17T07:58:09.406Z,58.18
2022-10-17T08:02:20.944Z,56.01
2022-10-17T08:06:22.448Z,55.06
2022-10-17T08:10:29.322Z,53.77
2022-10-17T08:14:34.820Z,52.46
2022-10-17T08:18:40.876Z,51.22
2022-10-17T08:22:43.122Z,49.65
2022-10-17T08:26:48.254Z,48.62
2022-10-17T08:30:51.610Z,47.34
2022-10-17T08:34:53.990Z,46.74
2022-10-17T08:38:55.624Z,46.59
2022-10-17T08:43:21.259Z,47.00
2022-10-17T08:47:41.872Z,45.99
2022-10-17T08:51:51.811Z,49.09
2022-10-17T08:55:54.903Z,46.74
2022-10-17T08:59:57.163Z,45.66
2022-10-17T09:04:33.274Z,45.47
2022-10-17T09:08:41.909Z,42.78
2022-10-17T09:12:49.766Z,42.20
2022-10-17T09:17:28.686Z,41.94
2022-10-17T09:22:01.030Z,40.07
2022-10-17T09:26:02.680Z,37.21
2022-10-17T09:30:45.296Z,36.72
2022-10-17T09:34:48.013Z,35.13
2022-10-17T09:38:58.279Z,34.01
2022-10-17T09:43:02.592Z,31.06
2022-10-17T09:47:32.967Z,31.54
2022-10-17T09:51:37.840Z,31.00
2022-10-17T09:55:49.402Z,32.52
2022-10-17T10:00:01.950Z,31.42
2022-10-17T10:04:15.295Z,29.46
2022-10-17T10:08:19.684Z,30.12
2022-10-17T10:12:39.065Z,29.63
2022-10-17T10:16:48.297Z,28.63
2022-10-17T10:21:04.310Z,26.32
2022-10-17T10:25:12.829Z,26.07
2022-10-17T10:29:34.597Z,26.50
2022-10-17T10:33:42.994Z,26.51
2022-10-17T10:37:50.013Z,24.53
2022-10-17T10:41:51.732Z,23.61
2022-10-17T10:45:53.534Z,25.48
2022-10-17T10:50:31.410Z,23.67
2022-10-17T10:54:40.075Z,23.19
2022-10-17T10:59:20.580Z,23.21
2022-10-17T11:04:01.045Z,25.83
2022-10-17T11:08:33.703Z,24.15
2022-10-17T11:13:05.098Z,22.61
2022-10-17T11:17:18.106Z,23.51
2022-10-17T11:21:29.348Z,23.02
2022-10-17T11:25:33.048Z,20.61
2022-10-17T11:29:38.650Z,21.53
2022-10-17T11:33:52.704Z,22.86
2022-10-17T11:38:08.198Z,21.84
2022-10-17T11:42:19.660Z,21.31
2022-10-17T11:46:24.991Z,20.60
2022-10-17T11:54:59.557Z,19.88
2022-10-17T11:59:44.656Z,20.39
2022-10-17T12:04:04.512Z,19.38
2022-10-17T12:08:30.662Z,19.85
2022-10-17T12:12:35.149Z,18.81
2022-10-17T12:16:38.598Z,20.31
2022-10-17T12:20:40.393Z,19.64
2022-10-17T12:24:54.855Z,20.15
2022-10-17T12:28:57.690Z,19.88
2022-10-17T12:33:23.049Z,19.09
2022-10-17T12:38:00.540Z,19.16
2022-10-17T12:42:02.296Z,19.56
2022-10-17T12:46:05.221Z,19.83
2022-10-17T12:51:17.700Z,20.15
2022-10-17T12:55:25.068Z,19.10
2022-10-17T12:59:29.496Z,19.09
2022-10-17T13:03:43.784Z,18.27
2022-10-17T13:07:49.323Z,17.85
2022-10-17T13:11:51.774Z,19.29
2022-10-17T13:15:55.163Z,18.98
2022-10-17T13:19:57.822Z,18.97
2022-10-17T13:23:59.430Z,19.30
2022-10-17T13:28:13.705Z,19.11
2022-10-17T13:32:15.670Z,20.15
2022-10-17T13:36:19.740Z,20.51
2022-10-17T13:40:49.690Z,21.74
2022-10-17T13:44:47.671Z,22.99
2022-10-17T13:48:49.571Z,25.18
2022-10-17T13:53:26.154Z,27.40
2022-10-17T13:57:30.627Z,29.00
2022-10-17T14:01:32.981Z,28.72
2022-10-17T14:05:34.810Z,28.86
2022-10-17T14:09:36.567Z,30.54
2022-10-17T14:13:38.542Z,32.04
2022-10-17T14:17:40.678Z,34.45
2022-10-17T14:21:51.022Z,36.09
2022-10-17T14:26:14.782Z,38.28
2022-10-17T14:30:51.700Z,40.07
2022-10-17T14:41:29.618Z,44.27
2022-10-17T14:45:33.048Z,46.33
2022-10-17T14:49:50.299Z,47.07
2022-10-17T14:54:27.197Z,47.96
2022-10-17T14:58:31.479Z,48.89
2022-10-17T15:03:03.763Z,50.65
2022-10-17T15:07:05.760Z,51.03
2022-10-17T15:11:41.544Z,51.54
2022-10-17T15:15:43.639Z,52.22
2022-10-17T15:20:20.301Z,53.26
2022-10-17T15:24:22.092Z,52.84
2022-10-17T15:29:24.358Z,53.30
2022-10-17T15:33:49.792Z,53.83
2022-10-17T15:37:51.921Z,54.25
2022-10-17T15:41:53.537Z,54.60
2022-10-17T15:45:55.178Z,55.21
2022-10-17T15:49:57.158Z,55.43
2022-10-17T15:54:06.068Z,56.21
2022-10-17T15:58:15.317Z,57.19
2022-10-17T16:02:19.072Z,57.96
2022-10-17T16:06:22.230Z,58.15
2022-10-17T16:10:25.772Z,59.02
2022-10-17T16:14:27.789Z,59.44
2022-10-17T16:18:29.353Z,60.03
2022-10-17T16:22:36.543Z,60.45
2022-10-17T16:26:39.485Z,61.05
2022-10-17T16:30:44.912Z,61.24
2022-10-17T16:34:46.593Z,61.78
2022-10-17T16:38:49.802Z,62.07
2022-10-17T16:42:51.631Z,61.62
2022-10-17T16:46:53.231Z,62.36
2022-10-17T16:50:54.910Z,62.24
2022-10-17T16:55:05.885Z,62.75
2022-10-17T16:59:07.538Z,62.89
2022-10-17T17:03:09.028Z,63.50
2022-10-17T17:07:10.940Z,63.38
2022-10-17T17:11:14.929Z,64.49
2022-10-17T17:15:16.583Z,64.91
2022-10-17T17:19:18.106Z,65.58
2022-10-17T17:23:19.635Z,65.88
2022-10-17T17:27:21.546Z,65.65
2022-10-17T17:31:31.063Z,66.20
2022-10-17T17:35:38.705Z,66.72
2022-10-17T17:39:41.003Z,66.80
2022-10-17T17:43:44.152Z,66.99
2022-10-17T17:47:45.777Z,67.25
2022-10-17T17:51:47.437Z,67.77
2022-10-17T17:56:06.392Z,67.38
2022-10-17T18:00:08.681Z,67.72
2022-10-17T18:04:11.655Z,67.96
2022-10-17T18:08:49.892Z,68.21
2022-10-17T18:12:55.942Z,68.45
2022-10-17T18:16:57.795Z,68.63
2022-10-17T18:21:01.449Z,68.11
2022-10-17T18:25:03.299Z,68.48
2022-10-17T18:29:08.692Z,68.49
2022-10-17T18:33:10.635Z,69.07
2022-10-17T18:37:12.324Z,69.24
2022-10-17T18:41:17.926Z,69.76
2022-10-17T18:45:20.481Z,70.40
2022-10-17T18:49:25.590Z,70.67
2022-10-17T18:53:28.355Z,70.96
2022-10-17T18:57:30.180Z,71.38
2022-10-17T19:01:31.931Z,71.81
2022-10-17T19:05:34.673Z,71.88
2022-10-17T19:09:36.240Z,72.51
2022-10-17T19:13:38.189Z,72.52
2022-10-17T19:17:39.828Z,72.63
2022-10-17T19:21:42.202Z,72.84
2022-10-17T19:25:43.802Z,73.01
2022-10-17T19:29:45.535Z,72.92
2022-10-17T19:33:49.505Z,73.31
2022-10-17T19:37:51.069Z,73.63
2022-10-17T19:41:52.835Z,74.39
2022-10-17T19:46:02.343Z,74.11
2022-10-17T19:50:07.020Z,74.33
2022-10-17T19:54:09.715Z,74.46
2022-10-17T19:58:12.106Z,74.89
2022-10-17T20:02:14.117Z,75.33
2022-10-17T20:06:24.310Z,75.54
2022-10-17T20:10:25.938Z,75.39
2022-10-17T20:14:27.560Z,75.66
2022-10-17T20:18:29.371Z,75.63
2022-10-17T20:22:31.436Z,75.89
2022-10-17T20:26:39.047Z,75.94
2022-10-17T20:30:46.085Z,76.47
2022-10-17T20:34:47.643Z,76.36
2022-10-17T20:38:56.659Z,77.09
2022-10-17T20:42:58.249Z,77.24
2022-10-17T20:47:02.460Z,77.32
2022-10-17T20:51:09.056Z,77.56
2022-10-17T20:55:10.679Z,77.96
2022-10-17T20:59:16.060Z,77.71
2022-10-17T21:03:17.712Z,77.72
2022-10-17T21:07:19.471Z,78.18
2022-10-17T21:11:24.935Z,78.33
2022-10-17T21:15:27.037Z,78.14
2022-10-17T21:19:28.795Z,78.07
2022-10-17T21:23:30.565Z,78.00
2022-10-17T21:27:32.106Z,78.45
2022-10-17T21:31:38.775Z,78.78
2022-10-17T21:35:40.396Z,78.68
2022-10-17T21:39:42.012Z,78.62
2022-10-17T21:43:43.709Z,78.46
2022-10-17T21:48:11.263Z,78.18
2022-10-17T21:52:07.176Z,78.26
2022-10-17T21:56:16.067Z,79.07
2022-10-17T22:00:17.924Z,78.84
2022-10-17T22:04:19.892Z,79.10
2022-10-17T22:08:21.451Z,79.75
2022-10-17T22:12:23.073Z,79.61
2022-10-17T22:16:25.280Z,79.31
2022-10-17T22:20:26.818Z,79.44
2022-10-17T22:24:28.593Z,79.51
2022-10-17T22:28:30.342Z,79.25
2022-10-17T22:32:31.925Z,79.72
2022-10-17T22:36:34.532Z,79.46
2022-10-17T22:40:36.284Z,79.82
2022-10-17T22:44:49.570Z,80.25
2022-10-17T22:48:51.340Z,80.49
2022-10-17T22:52:53.625Z,80.36
2022-10-17T22:56:55.253Z,80.39
2022-10-17T23:01:00.576Z,79.77
2022-10-17T23:05:04.989Z,80.11
2022-10-17T23:09:06.492Z,80.43
2022-10-17T23:13:08.518Z,81.11
2022-10-17T23:17:11.369Z,80.38
2022-10-17T23:21:13.691Z,80.46
2022-10-17T23:25:23.372Z,80.68
2022-10-17T23:29:26.965Z,81.12
2022-10-17T23:33:28.975Z,81.33
2022-10-17T23:37:30.583Z,81.16
2022-10-17T23:41:33.118Z,81.21
2022-10-17T23:45:37.239Z,81.19
2022-10-17T23:49:39.366Z,81.28
2022-10-17T23:53:41.092Z,81.75
2022-10-17T23:57:42.611Z,81.73
